KTBR/TBR METAR and TAF weather

Enter ICAO airport designator
Station Type Date Time Source
KTBR METAR 2021/09/24 02:55 UTC NOAA

KTBR 240255Z AUTO 00000KT 10SM CLR 15/14 A3003 RMK AO2 T01510137


Station Type Date Time Source
KTBR Decoded METAR 2021/09/24 02:55 UTC NOAA

Statesboro, Statesboro-Bulloch County Airport, GA, United States (KTBR) 32-28-59N 081-44-14W
Sep 23, 2021 - 10:55 PM EDT / 2021.09.24 0255 UTC
Wind: Calm:0
Visibility: 10 mile(s):0
Sky conditions: clear
Temperature: 59.2 F (15.1 C)
Dew Point: 56.7 F (13.7 C)
Relative Humidity: 91%
Pressure (altimeter): 30.03 in. Hg (1016 hPa)
ob: KTBR 240255Z AUTO 00000KT 10SM CLR 15/14 A3003 RMK AO2 T01510137
cycle: 3

Station Type Date Time Source
KTBR TAF UTC NOAA

Error!

Example: see airport list